createdAt,value
2022-08-03T00:01:39.338Z,58.83
2022-08-03T00:04:09.124Z,60.75
2022-08-03T00:06:37.802Z,62.22
2022-08-03T00:09:06.870Z,65.34
2022-08-03T00:11:35.381Z,59.90
2022-08-03T00:14:05.883Z,55.68
2022-08-03T00:16:34.259Z,57.14
2022-08-03T00:19:03.461Z,59.48
2022-08-03T00:21:31.633Z,61.29
2022-08-03T00:23:59.807Z,64.81
2022-08-03T00:26:27.977Z,60.76
2022-08-03T00:28:56.156Z,55.94
2022-08-03T00:31:39.925Z,57.37
2022-08-03T00:34:12.593Z,60.04
2022-08-03T00:36:40.847Z,61.97
2022-08-03T00:39:09.673Z,65.59
2022-08-03T00:41:37.913Z,61.19
2022-08-03T00:44:06.087Z,56.10
2022-08-03T00:46:34.258Z,56.69
2022-08-03T00:49:02.803Z,58.90
2022-08-03T00:51:32.079Z,60.93
2022-08-03T00:54:00.317Z,64.54
2022-08-03T00:56:28.490Z,61.01
2022-08-03T00:58:58.302Z,55.72
2022-08-03T01:01:26.512Z,56.55
2022-08-03T01:04:00.487Z,59.06
2022-08-03T01:06:46.377Z,61.19
2022-08-03T01:09:21.050Z,64.94
2022-08-03T01:12:08.120Z,59.37
2022-08-03T01:14:47.075Z,55.68
2022-08-03T01:17:25.972Z,57.68
2022-08-03T01:20:01.796Z,60.01
2022-08-03T01:23:03.593Z,61.78
2022-08-03T01:25:54.351Z,65.48
2022-08-03T01:28:29.664Z,58.80
2022-08-03T01:31:04.461Z,55.59
2022-08-03T01:33:47.483Z,57.79
2022-08-03T01:36:22.415Z,60.22
2022-08-03T01:38:59.139Z,64.70
2022-08-03T01:41:33.918Z,60.99
2022-08-03T01:44:30.047Z,55.86
2022-08-03T01:46:55.764Z,57.45
2022-08-03T01:49:26.158Z,60.08
2022-08-03T01:52:03.498Z,61.73
2022-08-03T01:54:38.004Z,65.72
2022-08-03T01:57:07.124Z,60.77
2022-08-03T01:59:37.319Z,55.86
2022-08-03T02:02:19.547Z,57.02
2022-08-03T02:04:59.471Z,59.63
2022-08-03T02:07:30.617Z,61.73
2022-08-03T02:10:00.528Z,65.78
2022-08-03T02:12:31.573Z,61.50
2022-08-03T02:15:01.107Z,56.15
2022-08-03T02:17:39.057Z,56.93
2022-08-03T02:20:13.706Z,59.53
2022-08-03T02:22:44.131Z,61.55
2022-08-03T02:25:14.154Z,65.50
2022-08-03T02:27:55.532Z,61.00
2022-08-03T02:30:31.291Z,55.83
2022-08-03T02:33:01.813Z,57.41
2022-08-03T02:35:32.648Z,59.96
2022-08-03T02:38:05.329Z,61.82
2022-08-03T02:40:34.076Z,66.28
2022-08-03T02:43:12.498Z,61.21
2022-08-03T02:45:46.029Z,56.30
2022-08-03T02:48:19.118Z,57.63
2022-08-03T02:50:48.829Z,60.15
2022-08-03T02:53:18.516Z,61.96
2022-08-03T02:55:49.477Z,65.82
2022-08-03T02:58:24.204Z,61.19
2022-08-03T03:00:53.991Z,56.02
2022-08-03T03:03:22.778Z,57.05
2022-08-03T03:05:57.552Z,59.40
2022-08-03T03:08:28.687Z,61.43
2022-08-03T03:10:59.933Z,65.05
2022-08-03T03:13:31.971Z,60.95
2022-08-03T03:16:02.926Z,55.95
2022-08-03T03:18:33.559Z,57.20
2022-08-03T03:21:05.366Z,59.86
2022-08-03T03:23:36.971Z,61.87
2022-08-03T03:26:06.379Z,65.79
2022-08-03T03:28:37.177Z,61.22
2022-08-03T03:31:09.787Z,56.13
2022-08-03T03:33:38.884Z,57.10
2022-08-03T03:36:08.110Z,59.65
2022-08-03T03:38:37.176Z,61.69
2022-08-03T03:41:06.021Z,65.68
2022-08-03T03:43:34.854Z,61.26
2022-08-03T03:46:03.461Z,56.29
2022-08-03T03:48:32.302Z,56.99
2022-08-03T03:51:02.072Z,59.66
2022-08-03T03:53:30.419Z,61.51
2022-08-03T03:56:01.772Z,65.67
2022-08-03T03:58:32.757Z,61.26
2022-08-03T04:01:01.721Z,56.24
2022-08-03T04:03:30.282Z,57.56
2022-08-03T04:06:17.195Z,60.07
2022-08-03T04:09:04.722Z,62.48
2022-08-03T04:11:39.776Z,65.81
2022-08-03T04:14:16.838Z,59.32
2022-08-03T04:16:52.488Z,56.40
2022-08-03T04:19:28.648Z,58.83
2022-08-03T04:22:01.553Z,60.73
2022-08-03T04:24:41.715Z,65.41
2022-08-03T04:27:13.139Z,61.69
2022-08-03T04:29:48.613Z,56.35
2022-08-03T04:32:18.277Z,57.28
2022-08-03T04:34:47.471Z,59.66
2022-08-03T04:37:22.321Z,61.62
2022-08-03T04:39:53.976Z,65.36
2022-08-03T04:42:27.422Z,60.13
2022-08-03T04:45:01.109Z,55.78
2022-08-03T04:47:33.756Z,57.30
2022-08-03T04:50:03.198Z,59.65
2022-08-03T04:52:32.385Z,61.59
2022-08-03T04:55:00.633Z,65.31
2022-08-03T04:57:28.808Z,60.79
2022-08-03T05:00:02.673Z,55.84
2022-08-03T05:02:32.397Z,57.00
2022-08-03T05:05:00.710Z,59.40
2022-08-03T05:07:35.538Z,61.32
2022-08-03T05:10:15.000Z,64.95
2022-08-03T05:12:46.533Z,59.40
2022-08-03T05:15:15.438Z,56.00
2022-08-03T05:17:44.327Z,57.88
2022-08-03T05:20:13.194Z,60.08
2022-08-03T05:22:44.649Z,62.06
2022-08-03T05:25:17.745Z,65.84
2022-08-03T05:27:49.240Z,60.73
2022-08-03T05:30:30.541Z,56.36
2022-08-03T05:33:03.526Z,57.81
2022-08-03T05:36:00.434Z,60.33
2022-08-03T05:38:23.844Z,62.57
2022-08-03T05:41:22.765Z,65.95
2022-08-03T05:43:46.428Z,59.93
2022-08-03T05:46:15.116Z,56.34
2022-08-03T05:48:43.803Z,57.03
2022-08-03T05:51:12.351Z,60.24
2022-08-03T05:53:43.528Z,65.40
2022-08-03T05:56:14.018Z,62.51
2022-08-03T05:58:46.249Z,57.15
2022-08-03T06:01:16.151Z,58.03
2022-08-03T06:03:45.883Z,60.19
2022-08-03T06:06:14.126Z,65.48
2022-08-03T06:08:43.732Z,62.33
2022-08-03T06:11:12.502Z,57.78
2022-08-03T06:13:41.337Z,57.96
2022-08-03T06:16:10.302Z,60.03
2022-08-03T06:18:39.087Z,62.44
2022-08-03T06:21:14.664Z,65.45
2022-08-03T06:23:54.368Z,60.74
2022-08-03T06:26:25.731Z,56.17
2022-08-03T06:28:55.123Z,57.20
2022-08-03T06:31:33.239Z,60.49
2022-08-03T06:34:32.238Z,61.88
2022-08-03T06:36:53.513Z,66.22
2022-08-03T06:39:23.459Z,61.03
2022-08-03T06:41:53.721Z,56.65
2022-08-03T06:44:21.963Z,57.84
2022-08-03T06:46:50.137Z,59.97
2022-08-03T06:49:18.579Z,61.69
2022-08-03T06:52:03.997Z,65.69
2022-08-03T06:54:35.831Z,60.59
2022-08-03T06:57:04.554Z,56.34
2022-08-03T07:00:08.851Z,57.52
2022-08-03T07:02:21.104Z,59.46
2022-08-03T07:04:49.511Z,61.36
2022-08-03T07:07:19.608Z,65.73
2022-08-03T07:09:57.168Z,60.84
2022-08-03T07:12:30.758Z,56.27
2022-08-03T07:15:01.909Z,58.10
2022-08-03T07:17:33.762Z,60.71
2022-08-03T07:20:08.284Z,64.24
2022-08-03T07:22:36.661Z,61.13
2022-08-03T07:25:05.742Z,56.28
2022-08-03T07:27:34.137Z,56.97
2022-08-03T07:30:02.310Z,59.40
2022-08-03T07:32:31.846Z,61.18
2022-08-03T07:35:01.243Z,64.81
2022-08-03T07:37:30.583Z,61.09
2022-08-03T07:40:03.198Z,56.10
2022-08-03T07:42:31.952Z,56.52
2022-08-03T07:45:00.368Z,58.70
2022-08-03T07:47:34.780Z,60.55
2022-08-03T07:50:06.358Z,64.36
2022-08-03T07:52:49.922Z,60.17
2022-08-03T07:55:22.661Z,55.90
2022-08-03T07:58:02.536Z,56.35
2022-08-03T08:00:31.188Z,58.67
2022-08-03T08:02:59.307Z,59.66
2022-08-03T08:05:29.689Z,60.98
2022-08-03T08:07:58.372Z,64.89
2022-08-03T08:10:26.545Z,61.05
2022-08-03T08:12:55.353Z,55.94
2022-08-03T08:15:23.713Z,56.78
2022-08-03T08:17:57.314Z,59.13
2022-08-03T08:20:31.470Z,59.83
2022-08-03T08:23:02.912Z,61.06
2022-08-03T08:25:32.283Z,64.42
2022-08-03T08:28:30.278Z,60.80
2022-08-03T08:30:52.897Z,55.02
2022-08-03T08:33:23.188Z,56.34
2022-08-03T08:35:53.592Z,57.93
2022-08-03T08:38:23.484Z,59.07
2022-08-03T08:40:52.251Z,60.06
2022-08-03T08:43:20.421Z,64.19
2022-08-03T08:45:54.535Z,60.48
2022-08-03T08:48:28.034Z,54.35
2022-08-03T08:50:57.974Z,54.98
2022-08-03T08:53:30.363Z,56.58
2022-08-03T08:56:02.897Z,58.10
2022-08-03T08:58:37.319Z,59.41
2022-08-03T09:01:06.951Z,64.94
2022-08-03T09:03:35.201Z,59.35
2022-08-03T09:06:04.202Z,55.09
2022-08-03T09:08:33.203Z,55.27
2022-08-03T09:11:01.574Z,57.17
2022-08-03T09:13:30.764Z,59.12
2022-08-03T09:16:22.723Z,59.54
2022-08-03T09:18:54.500Z,60.46
2022-08-03T09:21:34.673Z,60.51
2022-08-03T09:24:10.280Z,64.59
2022-08-03T09:26:53.841Z,57.43
2022-08-03T09:29:23.095Z,53.93
2022-08-03T09:32:02.845Z,54.70
2022-08-03T09:34:31.320Z,55.95
2022-08-03T09:36:59.544Z,57.97
2022-08-03T09:39:41.055Z,58.64
2022-08-03T09:42:18.435Z,59.85
2022-08-03T09:44:48.384Z,63.22
2022-08-03T09:47:28.530Z,56.49
2022-08-03T09:50:07.372Z,54.58
2022-08-03T09:52:51.832Z,55.63
2022-08-03T09:56:32.706Z,56.54
2022-08-03T09:58:10.838Z,56.99
2022-08-03T10:01:03.820Z,58.35
2022-08-03T10:04:03.552Z,59.09
2022-08-03T10:06:29.095Z,58.74
2022-08-03T10:09:07.288Z,58.83
2022-08-03T10:11:40.845Z,59.86
2022-08-03T10:14:19.361Z,59.85
2022-08-03T10:16:48.831Z,59.62
2022-08-03T10:19:17.638Z,60.15
2022-08-03T10:21:54.068Z,62.60
2022-08-03T10:24:26.676Z,58.68
2022-08-03T10:27:15.199Z,53.60
2022-08-03T10:29:48.718Z,52.58
2022-08-03T10:32:52.810Z,53.26
2022-08-03T10:35:21.963Z,54.59
2022-08-03T10:37:58.804Z,55.82
2022-08-03T10:43:23.201Z,57.37
2022-08-03T10:45:52.112Z,58.89
2022-08-03T10:48:21.572Z,59.08
2022-08-03T10:50:50.821Z,59.23
2022-08-03T10:53:36.161Z,60.31
2022-08-03T10:56:27.419Z,60.72
2022-08-03T10:59:12.035Z,60.54
2022-08-03T11:01:59.480Z,64.07
2022-08-03T11:04:30.474Z,60.79
2022-08-03T11:07:17.909Z,51.99
2022-08-03T11:09:48.803Z,52.38
2022-08-03T11:12:34.753Z,52.02
2022-08-03T11:15:08.834Z,52.58
2022-08-03T11:17:46.162Z,54.46
2022-08-03T11:20:55.087Z,54.28
2022-08-03T11:24:04.129Z,54.38
2022-08-03T11:26:35.095Z,54.99
2022-08-03T11:29:29.918Z,54.94
2022-08-03T11:31:58.551Z,55.83
2022-08-03T11:34:26.926Z,56.27
2022-08-03T11:37:22.093Z,56.32
2022-08-03T11:39:53.204Z,57.22
2022-08-03T11:42:24.780Z,56.40
2022-08-03T11:45:00.372Z,56.99
2022-08-03T11:47:32.331Z,56.23
2022-08-03T11:50:02.445Z,55.46
2022-08-03T11:52:42.842Z,54.39
2022-08-03T11:55:12.929Z,54.21
2022-08-03T11:59:01.386Z,55.31
2022-08-03T12:00:32.244Z,54.72
2022-08-03T12:03:14.666Z,53.72
2022-08-03T12:05:52.758Z,54.58
2022-08-03T12:08:27.252Z,55.01
2022-08-03T12:10:57.167Z,54.15
2022-08-03T12:14:43.876Z,55.30
2022-08-03T12:16:26.723Z,53.96
2022-08-03T12:19:07.018Z,53.67
2022-08-03T12:21:35.328Z,53.50
2022-08-03T12:24:05.228Z,52.29
2022-08-03T12:26:44.684Z,52.91
2022-08-03T12:29:26.477Z,52.82
2022-08-03T12:31:56.157Z,53.89
2022-08-03T12:34:24.461Z,54.05
2022-08-03T12:36:56.537Z,53.29
2022-08-03T12:39:30.910Z,51.82
2022-08-03T12:41:59.746Z,52.52
2022-08-03T12:44:33.134Z,53.53
2022-08-03T12:47:02.843Z,53.05
2022-08-03T12:49:52.417Z,52.84
2022-08-03T12:52:23.048Z,52.37
2022-08-03T12:54:58.597Z,52.96
2022-08-03T12:57:41.514Z,52.08
2022-08-03T13:00:21.570Z,52.03
2022-08-03T13:05:57.748Z,52.21
2022-08-03T13:08:26.354Z,52.23
2022-08-03T13:10:54.609Z,52.53
2022-08-03T13:13:41.041Z,52.93
2022-08-03T13:16:09.184Z,52.90
2022-08-03T13:18:37.256Z,52.95
2022-08-03T13:21:06.354Z,52.34
2022-08-03T13:23:34.630Z,52.32
2022-08-03T13:26:02.800Z,51.95
2022-08-03T13:28:31.080Z,51.88
2022-08-03T13:30:59.456Z,51.69
2022-08-03T13:33:31.419Z,52.41
2022-08-03T13:35:59.538Z,51.74
2022-08-03T13:38:27.825Z,51.72
2022-08-03T13:40:56.863Z,52.75
2022-08-03T13:43:25.036Z,51.91
2022-08-03T13:45:57.681Z,52.13
2022-08-03T13:48:34.712Z,52.25
2022-08-03T13:51:11.550Z,51.25
2022-08-03T13:53:52.483Z,50.77
2022-08-03T13:56:20.620Z,50.32
2022-08-03T13:58:48.793Z,50.96
2022-08-03T14:01:18.563Z,51.25
2022-08-03T14:03:55.278Z,50.45
2022-08-03T14:06:25.094Z,49.88
2022-08-03T14:08:54.476Z,50.49
2022-08-03T14:11:24.203Z,49.46
2022-08-03T14:14:13.165Z,49.43
2022-08-03T14:16:41.339Z,49.58
2022-08-03T14:19:09.514Z,49.51
2022-08-03T14:21:40.554Z,50.37
2022-08-03T14:24:08.899Z,50.38
2022-08-03T14:26:37.109Z,50.18
2022-08-03T14:29:06.008Z,50.26
2022-08-03T14:32:11.093Z,50.05
2022-08-03T14:34:22.314Z,49.86
2022-08-03T14:36:55.608Z,48.97
2022-08-03T14:39:23.806Z,49.53
2022-08-03T14:41:51.903Z,48.96
2022-08-03T14:44:20.040Z,49.32
2022-08-03T14:46:48.203Z,49.64
2022-08-03T14:50:36.116Z,49.46
2022-08-03T14:52:05.579Z,50.01
2022-08-03T14:54:33.715Z,49.64
2022-08-03T14:57:01.992Z,49.54
2022-08-03T14:59:56.235Z,50.02
2022-08-03T15:02:23.924Z,50.33
2022-08-03T15:04:52.931Z,50.64
2022-08-03T15:07:21.296Z,50.29
2022-08-03T15:09:49.586Z,50.40
2022-08-03T15:12:17.874Z,50.12
2022-08-03T15:14:46.243Z,49.34
2022-08-03T15:17:14.417Z,50.00
2022-08-03T15:20:03.743Z,50.31
2022-08-03T15:22:34.680Z,50.48
2022-08-03T15:26:04.143Z,50.94
2022-08-03T15:28:03.493Z,50.80
2022-08-03T15:30:36.098Z,51.06
2022-08-03T15:33:05.310Z,51.59
2022-08-03T15:35:33.540Z,52.17
2022-08-03T15:38:04.969Z,51.73
2022-08-03T15:40:35.771Z,52.16
2022-08-03T15:43:04.236Z,52.36
2022-08-03T15:45:36.147Z,52.36
2022-08-03T15:48:06.439Z,51.95
2022-08-03T15:50:34.733Z,52.42
2022-08-03T15:53:03.092Z,51.13
2022-08-03T15:55:31.813Z,50.76
2022-08-03T15:59:09.944Z,50.51
2022-08-03T16:00:48.195Z,50.38
2022-08-03T16:03:16.370Z,50.29
2022-08-03T16:05:47.410Z,50.49
2022-08-03T16:08:15.584Z,49.92
2022-08-03T16:10:44.011Z,49.72
2022-08-03T16:13:12.459Z,50.20
2022-08-03T16:15:40.619Z,48.61
2022-08-03T16:18:09.200Z,49.31
2022-08-03T16:20:37.275Z,49.00
2022-08-03T16:23:10.574Z,48.79
2022-08-03T16:25:40.755Z,49.33
2022-08-03T16:28:13.784Z,50.07
2022-08-03T16:30:45.226Z,49.34
2022-08-03T16:33:17.401Z,50.27
2022-08-03T16:35:47.040Z,49.05
2022-08-03T16:38:18.770Z,50.13
2022-08-03T16:40:52.192Z,50.10
2022-08-03T16:43:22.536Z,50.21
2022-08-03T16:45:51.907Z,49.94
2022-08-03T16:48:20.365Z,50.10
2022-08-03T16:50:48.539Z,51.39
2022-08-03T16:53:18.592Z,50.83
2022-08-03T16:56:03.705Z,50.94
2022-08-03T16:58:41.890Z,52.62
2022-08-03T17:01:21.931Z,52.25
2022-08-03T17:04:03.034Z,52.86
2022-08-03T17:06:44.906Z,53.23
2022-08-03T17:09:21.431Z,54.79
2022-08-03T17:11:51.203Z,54.96
2022-08-03T17:14:28.505Z,56.24
2022-08-03T17:17:06.812Z,57.23
2022-08-03T17:19:39.875Z,56.55
2022-08-03T17:22:12.509Z,56.42
2022-08-03T17:24:51.350Z,58.28
2022-08-03T17:28:48.657Z,58.36
2022-08-03T17:30:18.983Z,58.35
2022-08-03T17:32:53.510Z,58.81
2022-08-03T17:35:34.542Z,59.29
2022-08-03T17:38:11.985Z,59.79
2022-08-03T17:40:49.983Z,60.38
2022-08-03T17:44:12.709Z,60.56
2022-08-03T17:46:10.923Z,60.42
2022-08-03T17:48:41.476Z,60.64
2022-08-03T17:51:31.141Z,60.94
2022-08-03T17:54:00.438Z,60.59
2022-08-03T17:56:40.323Z,61.62
2022-08-03T17:59:52.830Z,61.59
2022-08-03T18:03:01.299Z,61.24
2022-08-03T18:06:09.074Z,61.33
2022-08-03T18:08:29.958Z,66.26
2022-08-03T18:11:14.296Z,59.21
2022-08-03T18:14:16.584Z,53.42
2022-08-03T18:16:52.610Z,54.25
2022-08-03T18:20:02.184Z,54.97
2022-08-03T18:22:12.407Z,55.57
2022-08-03T18:24:42.646Z,56.48
2022-08-03T18:27:16.025Z,56.83
2022-08-03T18:29:49.013Z,57.82
2022-08-03T18:32:17.358Z,58.96
2022-08-03T18:34:53.800Z,58.70
2022-08-03T18:37:25.858Z,59.88
2022-08-03T18:39:57.978Z,60.39
2022-08-03T18:42:27.006Z,61.54
2022-08-03T18:44:56.926Z,61.14
2022-08-03T18:50:48.240Z,66.35
2022-08-03T18:54:03.659Z,59.93
2022-08-03T18:56:48.788Z,53.96
2022-08-03T18:59:30.096Z,55.18
2022-08-03T19:02:23.525Z,57.65
2022-08-03T19:04:54.408Z,58.69
2022-08-03T19:07:27.666Z,58.96
2022-08-03T19:10:09.274Z,60.42
2022-08-03T19:13:03.438Z,61.26
2022-08-03T19:15:36.385Z,61.59
2022-08-03T19:18:10.429Z,61.60
2022-08-03T19:20:40.673Z,65.85
2022-08-03T19:23:11.597Z,60.36
2022-08-03T19:25:40.728Z,54.35
2022-08-03T19:28:09.839Z,55.51
2022-08-03T19:30:40.456Z,57.08
2022-08-03T19:33:11.361Z,58.70
2022-08-03T19:35:55.421Z,59.73
2022-08-03T19:38:28.579Z,60.63
2022-08-03T19:41:01.174Z,60.68
2022-08-03T19:43:52.977Z,61.19
2022-08-03T19:46:31.079Z,61.38
2022-08-03T19:49:17.100Z,61.26
2022-08-03T19:52:01.483Z,61.80
2022-08-03T19:54:45.858Z,66.16
2022-08-03T19:57:28.729Z,58.06
2022-08-03T19:59:57.953Z,53.74
2022-08-03T20:02:28.048Z,55.08
2022-08-03T20:05:00.542Z,56.96
2022-08-03T20:07:32.584Z,58.61
2022-08-03T20:10:03.215Z,59.77
2022-08-03T20:12:39.093Z,59.71
2022-08-03T20:15:09.339Z,59.98
2022-08-03T20:17:55.366Z,60.29
2022-08-03T20:20:34.011Z,60.51
2022-08-03T20:23:07.709Z,60.88
2022-08-03T20:25:48.658Z,65.45
2022-08-03T20:28:50.262Z,60.10
2022-08-03T20:31:32.066Z,55.24
2022-08-03T20:34:06.656Z,56.72
2022-08-03T20:36:35.239Z,58.38
2022-08-03T20:39:07.524Z,59.96
2022-08-03T20:41:36.506Z,60.43
2022-08-03T20:44:06.652Z,59.92
2022-08-03T20:46:50.317Z,60.15
2022-08-03T20:49:23.691Z,60.49
2022-08-03T20:51:53.174Z,61.60
2022-08-03T20:54:29.621Z,65.81
2022-08-03T20:57:03.795Z,59.51
2022-08-03T20:59:50.092Z,53.58
2022-08-03T21:02:29.796Z,54.05
2022-08-03T21:05:09.195Z,55.50
2022-08-03T21:08:03.822Z,57.00
2022-08-03T21:10:32.709Z,58.75
2022-08-03T21:13:00.464Z,61.56
2022-08-03T21:13:17.473Z,59.41
2022-08-03T21:16:02.447Z,59.93
2022-08-03T21:18:45.916Z,60.53
2022-08-03T21:21:16.510Z,61.10
2022-08-03T21:23:48.591Z,61.89
2022-08-03T21:26:20.325Z,66.37
2022-08-03T21:28:50.960Z,60.71
2022-08-03T21:31:24.336Z,54.68
2022-08-03T21:33:56.930Z,55.01
2022-08-03T21:36:27.959Z,56.79
2022-08-03T21:38:57.414Z,58.50
2022-08-03T21:41:28.085Z,58.67
2022-08-03T21:43:56.896Z,59.61
2022-08-03T21:46:27.043Z,60.66
2022-08-03T21:50:04.514Z,61.42
2022-08-03T21:51:50.131Z,65.53
2022-08-03T21:54:21.905Z,58.98
2022-08-03T21:56:53.299Z,54.70
2022-08-03T21:59:23.728Z,55.52
2022-08-03T22:01:55.193Z,57.24
2022-08-03T22:04:50.069Z,58.95
2022-08-03T22:07:16.240Z,60.10
2022-08-03T22:09:50.938Z,61.12
2022-08-03T22:12:23.000Z,61.76
2022-08-03T22:15:00.830Z,65.42
2022-08-03T22:17:55.758Z,59.04
2022-08-03T22:20:23.887Z,53.33
2022-08-03T22:22:57.138Z,54.97
2022-08-03T22:25:31.953Z,56.55
2022-08-03T22:28:08.156Z,58.27
2022-08-03T22:30:37.163Z,59.31
2022-08-03T22:33:08.357Z,59.08
2022-08-03T22:35:48.310Z,59.31
2022-08-03T22:38:19.590Z,59.85
2022-08-03T22:40:51.283Z,60.04
2022-08-03T22:43:27.370Z,60.46
2022-08-03T22:46:09.398Z,61.16
2022-08-03T22:48:41.742Z,61.36
2022-08-03T22:51:10.673Z,65.15
2022-08-03T22:53:39.664Z,58.72
2022-08-03T22:56:09.141Z,53.56
2022-08-03T22:58:37.448Z,54.48
2022-08-03T23:01:10.438Z,55.97
2022-08-03T23:04:01.150Z,57.69
2022-08-03T23:06:39.035Z,58.43
2022-08-03T23:09:13.765Z,59.03
2022-08-03T23:11:46.076Z,60.16
2022-08-03T23:14:18.416Z,60.21
2022-08-03T23:16:47.675Z,60.78
2022-08-03T23:19:25.299Z,61.41
2022-08-03T23:22:02.859Z,61.64
2022-08-03T23:24:38.278Z,66.24
2022-08-03T23:27:08.356Z,58.87
2022-08-03T23:29:39.755Z,53.66
2022-08-03T23:32:08.803Z,54.69
2022-08-03T23:34:58.682Z,56.26
2022-08-03T23:37:27.187Z,57.48
2022-08-03T23:39:57.488Z,58.63
2022-08-03T23:42:26.355Z,58.98
2022-08-03T23:44:59.329Z,59.84
2022-08-03T23:47:47.035Z,60.00
2022-08-03T23:50:16.630Z,60.50
2022-08-03T23:53:29.424Z,60.85
2022-08-03T23:56:13.983Z,60.77
2022-08-03T23:59:04.581Z,61.26
